Putney, VT (05346)

3:54 PM EDT on April 26, 2017 (GMT -0400)
Green Mountain Orchard | | Change Station

Elev 715 ft 42.99 °N, 72.54 °W | Updated 22 seconds ago

Overcast
Overcast
56.6 °F
Feels Like 56.6 °F
N
3.0
Wind Variable Wind from NW
Gusts 6.0 mph

Today
High -- | Low -- °F
--% Chance of Precip.
Yesterday
High -- | Low -- °F
Precip. -- in
Pressure 29.86 in
Visibility 10.0 miles
Clouds Mostly Cloudy 900 ft
Overcast 1800 ft
Dew Point Not available.
Humidity Not available.
Rainfall 0.38 in
Snow Depth Not available.
5:50 AM 7:45 PM
New Moon, 0% visible
SPECI KEEN 261911Z AUTO 03004KT 10SM BKN009 OVC018 13/12 A2986 RMK AO2 RAE10 CIG 006V013 P0000
Pressure 29.86 in
Visibility 10.0 miles
Clouds Mostly Cloudy 900 ft
Overcast 1800 ft
Dew Point Not available.
Humidity Not available.
Rainfall 0.38 in
Snow Depth Not available.
5:50 AM 7:45 PM
New Moon, 0% visible
SPECI KEEN 261911Z AUTO 03004KT 10SM BKN009 OVC018 13/12 A2986 RMK AO2 RAE10 CIG 006V013 P0000

Get Severe Weather Alerts

Thanks for signing up!

Be on the lookout for a verification email in your inbox.

You'll start receiving the daily forecast at 8 AM.

×

10-Day Weather Forecast

Almanac

Astronomy

Apr. 26, 2017 Rise Set
Actual Time
Civil Twilight
Nautical Twilight
Astronomical Twilight
Moon
Length of Visible Light
Length of Day
Tomorrow will be .
, % of the Moon is Illuminated

Today's Extremes

State Highs State Lows

Community

WunderPhotos

WunderBlog® & News

Nearby

Air Quality

  Air Quality AQ Index Pollutant
Not available.

Snow Depth

Station Depth Elevation

Earthquake Activity

City Distance Mag. Time & Date
Minimum magnitude displayed is 2.5.

Coastal Water Temperatures

Place Temperature

Stations

Nearby Weather Stations

Station Location Temp. Windchill Dew Point Humidity Wind Precip. Elev Updated Type
                   

Watches & Warnings

There are currently no watches in effect.